Time;durP1;ratioP1;P1;durP2;ratioP2;P2;SDS_P1;SDS_P2;PMS_P1;PMS_P2;Temp;Humidity;BMP_temperature;BMP_pressure;BME280_temperature;BME280_humidity;BME280_pressure;Samples;Min_cycle;Max_cycle;Signal;HPM_P1;HPM_P2
2021/11/18 00:00:14;;;;;;;7.72;6.05;;;23.40;37.60;;;;;;5058988;28;20048;-61
2021/11/18 00:02:44;;;;;;;7.38;5.80;;;23.40;37.60;;;;;;5037144;28;20398;-62
2021/11/18 00:05:13;;;;;;;7.97;6.47;;;23.30;37.50;;;;;;5063417;28;20044;-62
2021/11/18 00:07:49;;;;;;;6.65;5.90;;;23.40;37.60;;;;;;5064917;28;20056;-63
2021/11/18 00:10:21;;;;;;;5.93;5.32;;;23.40;37.60;;;;;;5062315;28;20051;-63
2021/11/18 00:12:49;;;;;;;6.28;5.45;;;23.30;37.50;;;;;;5039417;28;20052;-63
2021/11/18 00:15:17;;;;;;;7.85;6.07;;;23.40;37.60;;;;;;5043667;28;20045;-63
2021/11/18 00:17:44;;;;;;;7.10;6.03;;;23.40;37.60;;;;;;5044083;28;20060;-63
2021/11/18 00:20:14;;;;;;;6.65;5.38;;;23.30;37.50;;;;;;5043433;28;20086;-63
2021/11/18 00:22:44;;;;;;;8.07;5.63;;;23.30;37.50;;;;;;5044226;28;20501;-63
2021/11/18 00:25:13;;;;;;;7.23;5.90;;;23.40;37.60;;;;;;5063499;28;20048;-63
2021/11/18 00:27:41;;;;;;;6.68;5.97;;;23.40;37.60;;;;;;5064119;28;20558;-63
2021/11/18 00:30:10;;;;;;;7.95;6.93;;;23.30;37.50;;;;;;5063192;28;20562;-62
2021/11/18 00:32:42;;;;;;;6.53;5.85;;;23.30;37.50;;;;;;5040373;28;20060;-63
2021/11/18 00:35:15;;;;;;;8.63;6.05;;;23.40;37.60;;;;;;5043538;28;20471;-62
2021/11/18 00:37:44;;;;;;;7.00;5.80;;;23.30;37.60;;;;;;5043870;28;20126;-62
2021/11/18 00:40:12;;;;;;;8.15;6.28;;;23.30;37.50;;;;;;5043217;28;20048;-63
2021/11/18 00:42:41;;;;;;;7.32;5.78;;;23.30;37.60;;;;;;5047290;28;20109;-63
2021/11/18 00:45:10;;;;;;;6.85;6.03;;;23.30;37.60;;;;;;5063641;28;20043;-63
2021/11/18 00:47:37;;;;;;;6.43;5.72;;;23.30;37.60;;;;;;5064053;28;20052;-63
2021/11/18 00:50:06;;;;;;;6.82;6.05;;;23.30;37.60;;;;;;5063109;28;20052;-63
2021/11/18 00:52:33;;;;;;;7.00;5.50;;;23.30;37.60;;;;;;5034391;28;20053;-62
2021/11/18 00:55:01;;;;;;;8.93;6.63;;;23.30;37.60;;;;;;5044210;28;20057;-62
2021/11/18 00:57:28;;;;;;;7.88;6.07;;;23.30;37.60;;;;;;5047221;28;20501;-64
2021/11/18 00:59:55;;;;;;;6.75;5.97;;;23.30;37.60;;;;;;5046438;28;20048;-62
2021/11/18 01:02:22;;;;;;;7.63;6.57;;;23.30;37.60;;;;;;5049396;28;20047;-63
2021/11/18 01:04:50;;;;;;;6.60;5.78;;;23.30;37.60;;;;;;5066618;28;20062;-63
2021/11/18 01:07:17;;;;;;;7.32;5.95;;;23.30;37.60;;;;;;5067366;28;20055;-62
2021/11/18 01:09:44;;;;;;;6.65;5.15;;;23.30;37.60;;;;;;5066715;28;20063;-63
2021/11/18 01:12:12;;;;;;;5.97;5.38;;;23.30;37.60;;;;;;5046549;28;20048;-62
2021/11/18 01:14:40;;;;;;;8.60;6.60;;;23.30;37.70;;;;;;5046859;28;20052;-62
2021/11/18 01:17:07;;;;;;;6.47;5.70;;;23.30;37.60;;;;;;5046390;28;20106;-63
2021/11/18 01:19:35;;;;;;;6.88;6.13;;;23.30;37.70;;;;;;5046619;28;20056;-63
2021/11/18 01:22:04;;;;;;;7.70;5.60;;;23.30;37.70;;;;;;5040374;28;20105;-63
2021/11/18 01:24:31;;;;;;;6.07;5.47;;;23.30;37.70;;;;;;5066437;28;20056;-63
2021/11/18 01:26:58;;;;;;;6.70;4.97;;;23.30;37.60;;;;;;5065291;28;20051;-62
2021/11/18 01:29:26;;;;;;;9.30;5.68;;;23.30;37.60;;;;;;5066573;28;20048;-63
2021/11/18 01:31:55;;;;;;;6.43;5.82;;;23.30;37.60;;;;;;5051511;28;20076;-63
2021/11/18 01:34:23;;;;;;;6.43;5.30;;;23.30;37.60;;;;;;5045799;28;20060;-63
2021/11/18 01:36:50;;;;;;;7.07;5.70;;;23.30;37.60;;;;;;5046200;28;20556;-63
2021/11/18 01:39:17;;;;;;;6.95;5.88;;;23.30;37.60;;;;;;5045953;28;20501;-63
2021/11/18 01:41:45;;;;;;;9.32;6.30;;;23.30;37.60;;;;;;5039725;28;20489;-63
2021/11/18 01:44:29;;;;;;;6.20;5.60;;;23.30;37.60;;;;;;5044685;28;20049;-63
2021/11/18 01:46:56;;;;;;;6.72;5.68;;;23.30;37.60;;;;;;5045981;28;20048;-62
2021/11/18 01:49:24;;;;;;;7.20;5.88;;;23.30;37.60;;;;;;5045774;28;20044;-63
2021/11/18 01:51:59;;;;;;;6.50;5.82;;;23.30;37.60;;;;;;5045951;28;20090;-62
2021/11/18 01:54:30;;;;;;;7.45;5.82;;;23.30;37.70;;;;;;5065750;28;20087;-62
2021/11/18 01:56:58;;;;;;;6.32;5.40;;;23.30;37.70;;;;;;5065561;28;20056;-62
2021/11/18 01:59:30;;;;;;;6.70;5.82;;;23.20;37.60;;;;;;5066776;28;20401;-63
2021/11/18 02:01:59;;;;;;;6.55;5.78;;;23.30;37.70;;;;;;5041551;28;20102;-62
2021/11/18 02:04:30;;;;;;;6.82;5.18;;;23.30;37.70;;;;;;5066830;28;20052;-63
2021/11/18 02:07:01;;;;;;;6.32;5.28;;;23.30;37.70;;;;;;5065068;28;20048;-63
2021/11/18 02:09:35;;;;;;;7.32;5.80;;;23.30;37.70;;;;;;5065910;28;20056;-62
2021/11/18 02:12:08;;;;;;;7.00;5.93;;;23.30;37.70;;;;;;5035791;28;20838;-63
2021/11/18 02:14:36;;;;;;;6.20;5.57;;;23.30;37.70;;;;;;5065880;28;20501;-62
2021/11/18 02:17:07;;;;;;;8.40;5.75;;;23.30;37.70;;;;;;5054413;28;20044;-62
2021/11/18 02:19:39;;;;;;;6.03;5.43;;;23.20;38.20;;;;;;5045355;28;20620;-62
2021/11/18 02:22:07;;;;;;;8.25;6.13;;;23.30;37.70;;;;;;5038117;28;20512;-63
2021/11/18 02:24:41;;;;;;;6.18;5.20;;;23.30;37.70;;;;;;5064122;28;20553;-63
2021/11/18 02:27:11;;;;;;;6.63;5.60;;;23.30;37.70;;;;;;5065185;28;20044;-63
2021/11/18 02:29:39;;;;;;;5.07;4.57;;;23.20;37.70;;;;;;5065214;28;20559;-62
2021/11/18 02:32:10;;;;;;;6.57;5.40;;;23.20;37.70;;;;;;5045087;28;20048;-63
2021/11/18 02:34:47;;;;;;;5.47;4.97;;;23.30;37.70;;;;;;5045398;28;20129;-62
2021/11/18 02:37:15;;;;;;;6.35;5.07;;;23.20;37.60;;;;;;5044940;28;20189;-63
2021/11/18 02:39:42;;;;;;;6.68;5.53;;;23.20;37.60;;;;;;5044962;28;20064;-62
2021/11/18 02:42:13;;;;;;;5.63;5.07;;;23.20;37.70;;;;;;5030125;28;20449;-63
2021/11/18 02:44:41;;;;;;;5.60;5.10;;;23.20;37.70;;;;;;5045462;28;20052;-63
2021/11/18 02:47:12;;;;;;;5.65;5.10;;;23.20;37.70;;;;;;5044488;28;20048;-63
2021/11/18 02:49:43;;;;;;;8.00;6.03;;;23.20;37.70;;;;;;5044918;28;20118;-63
2021/11/18 02:52:11;;;;;;;6.22;5.40;;;23.20;37.70;;;;;;5033342;28;20052;-63
2021/11/18 02:54:39;;;;;;;6.05;5.05;;;23.20;37.70;;;;;;5064907;28;20052;-63
2021/11/18 02:57:07;;;;;;;5.97;5.20;;;23.20;37.70;;;;;;5065531;28;20643;-63
2021/11/18 02:59:37;;;;;;;7.07;5.68;;;23.20;37.70;;;;;;5063130;28;20055;-63
2021/11/18 03:02:07;;;;;;;6.47;5.43;;;23.20;37.70;;;;;;5040587;28;20045;-63
2021/11/18 03:04:36;;;;;;;5.57;5.00;;;23.20;37.70;;;;;;5068859;28;20059;-63
2021/11/18 03:07:03;;;;;;;6.13;5.38;;;23.20;37.70;;;;;;5068084;28;20052;-63
2021/11/18 03:09:31;;;;;;;6.43;5.50;;;23.20;37.70;;;;;;5069247;28;20080;-63
2021/11/18 03:12:00;;;;;;;6.25;5.05;;;23.20;37.70;;;;;;5047088;28;20571;-63
2021/11/18 03:14:28;;;;;;;7.53;5.47;;;23.20;37.70;;;;;;5043871;28;21006;-63
2021/11/18 03:16:56;;;;;;;6.13;5.28;;;23.20;37.70;;;;;;5044757;28;20118;-63
2021/11/18 03:19:23;;;;;;;7.18;5.55;;;23.20;37.70;;;;;;5043970;28;20048;-63
2021/11/18 03:21:51;;;;;;;5.63;5.00;;;23.20;37.70;;;;;;5034983;28;20048;-63
2021/11/18 03:24:21;;;;;;;6.00;4.95;;;23.20;37.70;;;;;;5042464;28;20255;-63
2021/11/18 03:26:48;;;;;;;5.10;4.60;;;23.20;37.70;;;;;;5044118;28;20106;-62
2021/11/18 03:29:15;;;;;;;5.72;5.10;;;23.20;37.70;;;;;;5043606;28;20113;-62
2021/11/18 03:31:44;;;;;;;6.10;5.18;;;23.20;37.70;;;;;;5036022;28;20130;-62
2021/11/18 03:34:16;;;;;;;6.22;4.95;;;23.20;37.70;;;;;;5040937;28;20063;-62
2021/11/18 03:36:43;;;;;;;5.57;4.90;;;23.20;37.70;;;;;;5044009;28;20129;-62
2021/11/18 03:39:11;;;;;;;5.97;5.00;;;23.20;37.70;;;;;;5043766;28;20071;-62
2021/11/18 03:41:41;;;;;;;5.53;4.90;;;23.20;37.70;;;;;;5043562;28;20089;-63
2021/11/18 03:44:10;;;;;;;5.88;4.85;;;23.20;37.70;;;;;;5060057;28;20107;-63
2021/11/18 03:46:45;;;;;;;5.32;4.82;;;23.20;37.70;;;;;;5065237;28;20048;-63
2021/11/18 03:49:13;;;;;;;8.57;6.13;;;23.20;37.70;;;;;;5064109;28;20052;-63
2021/11/18 03:51:41;;;;;;;6.05;5.13;;;23.20;37.70;;;;;;5048570;28;20048;-63
2021/11/18 03:54:11;;;;;;;6.50;5.13;;;23.20;37.70;;;;;;5040658;28;20084;-62
2021/11/18 03:56:39;;;;;;;5.95;5.22;;;23.20;37.70;;;;;;5044458;28;20082;-63
2021/11/18 03:59:09;;;;;;;5.60;5.05;;;23.20;37.70;;;;;;5043505;28;20113;-63
2021/11/18 04:01:37;;;;;;;6.07;5.10;;;23.20;37.80;;;;;;5017688;28;20162;-63
2021/11/18 04:04:08;;;;;;;6.10;5.05;;;23.20;37.70;;;;;;5039490;28;20087;-63
2021/11/18 04:06:37;;;;;;;5.53;5.03;;;23.20;37.70;;;;;;5042577;28;20489;-63
2021/11/18 04:09:05;;;;;;;4.82;4.32;;;23.20;37.80;;;;;;5043557;28;20094;-62
2021/11/18 04:11:33;;;;;;;6.20;5.18;;;23.20;37.80;;;;;;5041100;28;20045;-63
2021/11/18 04:14:01;;;;;;;6.13;4.97;;;23.20;37.80;;;;;;5039266;28;20519;-63
2021/11/18 04:16:28;;;;;;;6.88;5.68;;;23.20;37.80;;;;;;5043743;28;20121;-63
2021/11/18 04:18:55;;;;;;;5.25;4.53;;;23.20;37.80;;;;;;5040457;28;20052;-63
2021/11/18 04:21:24;;;;;;;5.55;4.70;;;23.10;37.70;;;;;;5027606;28;20052;-63
2021/11/18 04:23:51;;;;;;;5.63;4.93;;;23.20;37.70;;;;;;5039318;28;20109;-63
2021/11/18 04:26:18;;;;;;;6.00;4.95;;;23.20;37.70;;;;;;5043426;28;20606;-62
2021/11/18 04:28:46;;;;;;;6.07;5.18;;;23.20;37.80;;;;;;5043378;28;20080;-63
2021/11/18 04:31:17;;;;;;;5.68;5.07;;;23.10;37.80;;;;;;5039550;28;20060;-63
2021/11/18 04:33:45;;;;;;;6.53;4.97;;;23.10;38.30;;;;;;5041311;28;20052;-63
2021/11/18 04:36:15;;;;;;;4.93;4.40;;;23.10;37.80;;;;;;5046865;28;20057;-63
2021/11/18 04:38:43;;;;;;;5.22;4.38;;;23.10;37.80;;;;;;5046045;28;20084;-62
2021/11/18 04:41:11;;;;;;;5.88;4.68;;;23.10;37.80;;;;;;5041549;28;20084;-62
2021/11/18 04:43:40;;;;;;;6.55;5.28;;;23.10;37.80;;;;;;5052922;28;20101;-62
2021/11/18 04:46:09;;;;;;;6.65;5.10;;;23.10;37.90;;;;;;5051037;28;20044;-63
2021/11/18 04:48:37;;;;;;;5.57;5.00;;;23.10;37.80;;;;;;5047366;28;20052;-63
2021/11/18 04:51:07;;;;;;;5.55;5.00;;;23.10;37.80;;;;;;5045371;28;20138;-62
2021/11/18 04:53:35;;;;;;;6.22;5.22;;;23.10;37.90;;;;;;5047540;28;20149;-62
2021/11/18 04:56:04;;;;;;;6.38;5.25;;;23.10;37.80;;;;;;5047020;28;20064;-62
2021/11/18 04:58:32;;;;;;;5.63;4.82;;;23.10;37.80;;;;;;5047293;28;20101;-62
2021/11/18 05:00:59;;;;;;;6.82;5.57;;;23.10;37.80;;;;;;5043911;28;20044;-63
2021/11/18 05:03:28;;;;;;;5.45;4.93;;;23.10;37.80;;;;;;5024825;28;20512;-62
2021/11/18 05:05:56;;;;;;;5.15;4.65;;;23.10;37.80;;;;;;5046126;28;20097;-62
2021/11/18 05:08:24;;;;;;;5.05;4.50;;;23.10;37.80;;;;;;5046811;28;20070;-63
2021/11/18 05:10:52;;;;;;;6.28;4.60;;;23.10;37.80;;;;;;5041946;28;20055;-63
2021/11/18 05:13:24;;;;;;;6.68;5.25;;;23.10;37.80;;;;;;5059172;28;20101;-63
2021/11/18 05:15:53;;;;;;;4.70;4.28;;;23.10;37.80;;;;;;5065412;28;20052;-63
2021/11/18 05:18:20;;;;;;;5.60;4.78;;;23.10;37.80;;;;;;5046608;28;20493;-63
2021/11/18 05:20:48;;;;;;;4.85;4.28;;;23.10;37.80;;;;;;5039984;28;20048;-62
2021/11/18 05:23:15;;;;;;;5.68;4.90;;;23.10;37.90;;;;;;5049910;28;20043;-62
2021/11/18 05:25:44;;;;;;;5.10;4.25;;;23.10;37.80;;;;;;5067539;28;20071;-62
2021/11/18 05:28:12;;;;;;;5.53;4.90;;;23.10;37.80;;;;;;5067103;28;20052;-63
2021/11/18 05:30:41;;;;;;;5.75;5.07;;;23.10;37.80;;;;;;5064122;28;20059;-62
2021/11/18 05:33:11;;;;;;;5.75;4.82;;;23.10;37.80;;;;;;5045392;28;20044;-62
2021/11/18 05:35:39;;;;;;;7.40;5.25;;;23.10;37.80;;;;;;5042078;28;20567;-62
2021/11/18 05:38:07;;;;;;;5.80;5.05;;;23.10;37.80;;;;;;5046676;28;20118;-62
2021/11/18 05:40:36;;;;;;;5.40;4.47;;;23.10;37.80;;;;;;5044457;28;20052;-62
2021/11/18 05:43:04;;;;;;;5.23;4.73;;;23.10;37.80;;;;;;5030942;28;20061;-62
2021/11/18 05:45:34;;;;;;;4.78;4.32;;;23.10;37.80;;;;;;5037317;28;20293;-63
2021/11/18 05:48:06;;;;;;;4.78;4.28;;;23.10;37.80;;;;;;5034031;28;20553;-63
2021/11/18 05:50:36;;;;;;;5.60;4.75;;;23.00;37.80;;;;;;5034588;28;20061;-62
2021/11/18 05:53:03;;;;;;;5.43;4.80;;;23.10;37.80;;;;;;5024480;28;20049;-62
2021/11/18 05:55:33;;;;;;;5.93;4.30;;;23.10;37.80;;;;;;5036727;28;20079;-62
2021/11/18 05:58:01;;;;;;;6.57;4.70;;;23.10;37.80;;;;;;5032600;28;20045;-62
2021/11/18 06:00:30;;;;;;;3.95;3.55;;;23.10;37.80;;;;;;5034464;28;20049;-62
2021/11/18 06:02:59;;;;;;;4.95;4.03;;;23.00;37.80;;;;;;5026053;28;20072;-62
2021/11/18 06:05:30;;;;;;;5.50;4.70;;;23.10;37.80;;;;;;5035239;28;20409;-62
2021/11/18 06:07:58;;;;;;;5.75;4.70;;;23.10;37.80;;;;;;5052055;28;20540;-62
2021/11/18 06:10:28;;;;;;;5.18;4.65;;;23.10;37.80;;;;;;5038396;28;20565;-63
2021/11/18 06:12:56;;;;;;;5.32;4.75;;;23.00;37.60;;;;;;5034348;28;20130;-62
2021/11/18 06:15:24;;;;;;;5.72;4.70;;;23.10;37.60;;;;;;5036419;28;20166;-62
2021/11/18 06:17:51;;;;;;;5.07;4.47;;;23.10;37.50;;;;;;5032089;28;20071;-62
2021/11/18 06:20:20;;;;;;;6.00;4.85;;;23.10;37.40;;;;;;5033507;28;20049;-62
2021/11/18 06:22:49;;;;;;;5.00;4.45;;;23.10;37.30;;;;;;5028481;28;20045;-62
2021/11/18 06:25:19;;;;;;;5.00;4.20;;;23.20;37.30;;;;;;5032373;28;20493;-62
2021/11/18 06:27:47;;;;;;;5.88;4.60;;;23.20;37.10;;;;;;5026782;28;20048;-64
2021/11/18 06:30:35;;;;;;;7.18;4.80;;;23.20;36.90;;;;;;5025176;28;20063;-63
2021/11/18 06:33:03;;;;;;;4.80;4.30;;;23.30;37.00;;;;;;5014193;28;20654;-64
2021/11/18 06:35:31;;;;;;;8.57;5.03;;;23.30;36.70;;;;;;5025066;28;20048;-65
2021/11/18 06:38:00;;;;;;;5.20;4.70;;;23.40;36.60;;;;;;5027999;28;20143;-62
2021/11/18 06:40:28;;;;;;;6.50;4.65;;;23.50;36.50;;;;;;5028467;28;20118;-62
2021/11/18 06:42:56;;;;;;;5.22;4.20;;;23.50;36.40;;;;;;5012369;28;20052;-62
2021/11/18 06:45:27;;;;;;;5.75;4.30;;;23.60;36.20;;;;;;5021919;28;20052;-63
2021/11/18 06:47:54;;;;;;;5.55;4.35;;;23.70;36.10;;;;;;5021397;28;20526;-62
2021/11/18 06:50:22;;;;;;;6.57;4.45;;;23.70;36.10;;;;;;5023398;28;20339;-62
2021/11/18 06:52:50;;;;;;;4.35;3.88;;;23.80;36.10;;;;;;5011351;28;20053;-63
2021/11/18 06:55:17;;;;;;;9.02;4.32;;;23.90;36.20;;;;;;5025445;28;20056;-62
2021/11/18 06:57:46;;;;;;;6.90;4.43;;;23.90;36.30;;;;;;5020366;28;20049;-68
2021/11/18 07:00:14;;;;;;;5.45;4.63;;;24.00;36.40;;;;;;5024054;28;20056;-66
2021/11/18 07:02:48;;;;;;;6.53;3.97;;;24.10;36.90;;;;;;5016311;28;20057;-67
2021/11/18 07:05:15;;;;;;;5.07;4.57;;;24.10;36.90;;;;;;5022837;28;20052;-64
2021/11/18 07:07:43;;;;;;;10.05;4.28;;;24.20;36.80;;;;;;5022056;28;20056;-66
2021/11/18 07:10:21;;;;;;;9.43;5.07;;;24.30;36.70;;;;;;5021023;28;20052;-71
2021/11/18 07:12:52;;;;;;;5.95;4.22;;;24.40;36.50;;;;;;5014737;28;20414;-65
2021/11/18 07:15:19;;;;;;;10.35;4.20;;;24.50;36.50;;;;;;5023746;28;20068;-63
2021/11/18 07:17:52;;;;;;;7.00;4.88;;;24.50;36.20;;;;;;5022880;28;20049;-64
2021/11/18 07:20:20;;;;;;;4.80;4.18;;;24.60;35.80;;;;;;5027385;28;20123;-63
2021/11/18 07:22:48;;;;;;;6.30;4.25;;;24.70;35.80;;;;;;5017256;28;20421;-62
2021/11/18 07:25:20;;;;;;;5.90;4.78;;;24.70;35.80;;;;;;5023716;28;20094;-63
2021/11/18 07:27:49;;;;;;;6.18;5.15;;;24.80;35.50;;;;;;5026959;28;20057;-62
2021/11/18 07:30:18;;;;;;;5.05;4.15;;;24.90;35.30;;;;;;5023982;28;20053;-64
2021/11/18 07:32:46;;;;;;;4.72;4.30;;;24.90;35.30;;;;;;5011830;28;20842;-65
2021/11/18 07:35:13;;;;;;;4.82;4.15;;;25.00;35.20;;;;;;5018655;28;20478;-62
2021/11/18 07:37:41;;;;;;;7.97;5.75;;;25.10;35.30;;;;;;5028326;28;20505;-63
2021/11/18 07:40:12;;;;;;;8.63;5.20;;;25.10;35.30;;;;;;5025629;28;20052;-66
2021/11/18 07:42:39;;;;;;;5.60;4.43;;;25.20;35.10;;;;;;5016107;28;20052;-63
2021/11/18 07:45:10;;;;;;;5.22;4.60;;;25.30;34.90;;;;;;5027556;28;20497;-63
2021/11/18 07:47:37;;;;;;;6.53;4.40;;;25.30;34.90;;;;;;5023946;28;20473;-66
2021/11/18 07:50:07;;;;;;;6.15;4.18;;;25.40;34.00;;;;;;5025682;28;20642;-65
2021/11/18 07:52:36;;;;;;;5.43;4.57;;;25.40;34.30;;;;;;5015184;28;20106;-66
2021/11/18 07:55:05;;;;;;;8.98;4.00;;;25.50;34.30;;;;;;5024503;28;20336;-67
2021/11/18 07:57:32;;;;;;;7.97;4.38;;;25.50;34.80;;;;;;5023357;28;21687;-68
2021/11/18 08:00:00;;;;;;;6.78;4.30;;;25.50;35.00;;;;;;5028169;28;20497;-69
2021/11/18 08:02:27;;;;;;;5.68;4.35;;;25.60;35.10;;;;;;5016429;28;20048;-71
2021/11/18 08:04:55;;;;;;;7.55;4.55;;;25.60;35.10;;;;;;5020873;28;20056;-67
2021/11/18 08:07:23;;;;;;;7.53;4.45;;;25.70;34.90;;;;;;5030307;28;20059;-65
2021/11/18 08:09:52;;;;;;;4.78;4.13;;;25.70;35.50;;;;;;5029740;28;20670;-65
2021/11/18 08:12:20;;;;;;;5.53;3.95;;;25.80;34.80;;;;;;5022369;28;20044;-65
2021/11/18 08:14:47;;;;;;;7.95;4.68;;;25.80;34.40;;;;;;5029362;28;20049;-66
2021/11/18 08:17:14;;;;;;;4.50;4.00;;;25.80;34.20;;;;;;5033173;28;20056;-66
2021/11/18 08:19:42;;;;;;;7.00;4.07;;;25.90;33.90;;;;;;5022474;28;20151;-69
2021/11/18 08:22:10;;;;;;;7.32;4.40;;;25.90;33.80;;;;;;5013116;28;20059;-70
2021/11/18 08:24:37;;;;;;;4.30;3.90;;;26.00;33.80;;;;;;5022572;28;20497;-67
2021/11/18 08:27:05;;;;;;;4.97;3.95;;;26.00;33.90;;;;;;5031723;28;20061;-69
2021/11/18 08:29:33;;;;;;;5.68;4.10;;;26.00;33.50;;;;;;5028271;28;20050;-66
2021/11/18 08:32:00;;;;;;;4.97;3.58;;;26.00;33.40;;;;;;5022026;28;20150;-69
2021/11/18 08:34:28;;;;;;;4.38;3.92;;;26.00;33.50;;;;;;5023655;28;20056;-68
2021/11/18 08:36:56;;;;;;;4.55;3.83;;;26.00;33.30;;;;;;5026527;28;20693;-68
2021/11/18 08:39:25;;;;;;;4.55;3.65;;;26.00;33.30;;;;;;5029472;28;20516;-68
2021/11/18 08:42:00;;;;;;;7.72;3.90;;;26.00;33.30;;;;;;5022729;28;20048;-69
2021/11/18 08:44:29;;;;;;;4.53;3.80;;;26.00;33.40;;;;;;5026898;28;20789;-70
2021/11/18 08:46:57;;;;;;;5.70;4.22;;;25.90;33.30;;;;;;5027415;28;20040;-68
2021/11/18 08:49:25;;;;;;;5.18;4.15;;;25.90;33.30;;;;;;5032124;28;20141;-65
2021/11/18 08:51:54;;;;;;;6.45;3.83;;;25.90;33.60;;;;;;5021539;28;20060;-63
2021/11/18 08:54:24;;;;;;;5.55;4.10;;;25.80;33.60;;;;;;5023820;28;20127;-63
2021/11/18 08:56:53;;;;;;;5.10;4.07;;;25.80;33.60;;;;;;5030105;28;20052;-64
2021/11/18 08:59:22;;;;;;;8.57;3.70;;;25.80;33.80;;;;;;5025080;28;20094;-64
2021/11/18 09:02:00;;;;;;;5.70;3.80;;;25.70;33.70;;;;;;5016181;28;20049;-62
2021/11/18 09:04:29;;;;;;;4.60;3.90;;;25.70;33.90;;;;;;5026948;28;20048;-64
2021/11/18 09:06:56;;;;;;;4.50;4.07;;;25.70;33.90;;;;;;5028128;28;20095;-64
2021/11/18 09:09:26;;;;;;;5.10;3.70;;;25.70;33.80;;;;;;5035595;28;20449;-64
2021/11/18 09:11:57;;;;;;;6.40;4.13;;;25.70;33.90;;;;;;5022458;28;20059;-64
2021/11/18 09:14:28;;;;;;;5.28;4.22;;;25.70;33.90;;;;;;5023898;28;20072;-63
2021/11/18 09:16:56;;;;;;;4.20;3.80;;;25.60;33.80;;;;;;5029822;28;20048;-64
2021/11/18 09:19:28;;;;;;;5.30;3.75;;;25.60;33.90;;;;;;5027500;28;20093;-69
2021/11/18 09:21:57;;;;;;;6.32;4.40;;;25.60;33.90;;;;;;5026260;28;20079;-64
2021/11/18 09:24:33;;;;;;;3.90;3.50;;;25.60;33.90;;;;;;5022807;28;20040;-64
2021/11/18 09:27:09;;;;;;;6.82;4.25;;;25.60;33.90;;;;;;5030069;28;20578;-62
2021/11/18 09:29:36;;;;;;;5.28;3.95;;;25.60;33.90;;;;;;5027840;28;20501;-64
2021/11/18 09:32:05;;;;;;;6.35;4.30;;;25.60;33.90;;;;;;5024134;28;20056;-65
2021/11/18 09:34:33;;;;;;;5.50;3.85;;;25.60;33.90;;;;;;5028005;28;20049;-64
2021/11/18 09:37:00;;;;;;;5.78;4.13;;;25.60;34.40;;;;;;5030439;28;20114;-65
2021/11/18 09:39:28;;;;;;;4.38;3.95;;;25.70;33.80;;;;;;5032767;28;20071;-64
2021/11/18 09:42:03;;;;;;;5.05;4.20;;;25.70;33.70;;;;;;5026568;28;20079;-64
2021/11/18 09:44:49;;;;;;;5.53;4.13;;;25.70;33.70;;;;;;5031070;28;20052;-63
2021/11/18 09:47:56;;;;;;;5.30;3.97;;;25.70;33.60;;;;;;5034449;28;20044;-64
2021/11/18 09:50:49;;;;;;;4.97;4.25;;;25.70;33.50;;;;;;5022241;28;20044;-64
2021/11/18 09:53:53;;;;;;;6.38;4.70;;;25.70;33.50;;;;;;5028031;28;20099;-64
2021/11/18 09:56:32;;;;;;;6.45;4.63;;;25.80;33.60;;;;;;5028827;28;20075;-64
2021/11/18 09:59:16;;;;;;;7.35;5.20;;;25.80;33.60;;;;;;5031582;28;20150;-66
2021/11/18 10:02:17;;;;;;;4.15;3.72;;;25.80;33.60;;;;;;5021212;28;20921;-68
2021/11/18 10:05:02;;;;;;;5.50;4.50;;;25.80;33.40;;;;;;5025979;28;20059;-64
2021/11/18 10:07:49;;;;;;;5.43;4.22;;;25.80;33.40;;;;;;5022286;28;20514;-64
2021/11/18 10:10:43;;;;;;;5.65;4.38;;;25.80;33.40;;;;;;5024642;28;20053;-64
2021/11/18 10:13:51;;;;;;;6.55;4.93;;;25.80;33.40;;;;;;5021454;28;20088;-62
2021/11/18 10:16:34;;;;;;;4.53;4.00;;;25.80;33.40;;;;;;5027793;28;20064;-64
2021/11/18 10:19:05;;;;;;;4.93;4.40;;;25.80;33.20;;;;;;5028908;28;20692;-65
2021/11/18 10:21:40;;;;;;;6.55;4.57;;;25.80;33.20;;;;;;5020335;28;20494;-63
2021/11/18 10:24:14;;;;;;;5.32;4.20;;;25.80;33.10;;;;;;5025749;28;20044;-64
2021/11/18 10:26:50;;;;;;;6.18;4.53;;;25.80;33.20;;;;;;5028051;28;20049;-62
2021/11/18 10:29:23;;;;;;;6.75;3.60;;;25.70;33.10;;;;;;5026524;28;20045;-63
2021/11/18 10:32:12;;;;;;;4.47;4.07;;;25.70;33.30;;;;;;5015568;28;20558;-64
2021/11/18 10:35:20;;;;;;;9.13;3.95;;;25.70;33.30;;;;;;5029784;28;20127;-64
2021/11/18 10:37:50;;;;;;;4.05;3.60;;;25.60;33.40;;;;;;5028115;28;20413;-64
2021/11/18 10:40:30;;;;;;;5.72;4.35;;;25.60;33.40;;;;;;5030095;28;20059;-65
2021/11/18 10:43:15;;;;;;;5.47;4.38;;;25.60;33.30;;;;;;5021248;28;20044;-64
2021/11/18 10:46:18;;;;;;;5.00;4.25;;;25.70;33.40;;;;;;5029352;28;20044;-64
2021/11/18 10:49:06;;;;;;;3.95;3.35;;;25.60;33.20;;;;;;5032101;28;20563;-64
2021/11/18 10:51:55;;;;;;;4.00;3.60;;;25.60;33.30;;;;;;5026189;28;20148;-64
2021/11/18 10:54:43;;;;;;;3.42;3.13;;;25.70;33.20;;;;;;5028562;28;20508;-64
2021/11/18 10:57:23;;;;;;;4.72;3.72;;;25.70;33.10;;;;;;5025364;28;20536;-64
2021/11/18 10:59:54;;;;;;;3.75;3.42;;;25.70;33.20;;;;;;5028140;28;20049;-63
2021/11/18 11:02:31;;;;;;;5.78;3.70;;;25.70;33.20;;;;;;5020605;28;20061;-64
2021/11/18 11:05:03;;;;;;;3.55;3.25;;;25.70;33.00;;;;;;5025300;28;20049;-65
2021/11/18 11:07:35;;;;;;;4.10;3.55;;;25.70;32.90;;;;;;5017683;28;20140;-64
2021/11/18 11:10:06;;;;;;;4.10;3.75;;;25.70;32.90;;;;;;5029969;28;20048;-64
2021/11/18 11:12:36;;;;;;;4.40;3.10;;;25.70;32.90;;;;;;5018770;28;20060;-64
2021/11/18 11:15:43;;;;;;;4.00;3.15;;;25.70;32.90;;;;;;5030809;28;20052;-64
2021/11/18 11:18:44;;;;;;;4.68;3.67;;;25.70;32.80;;;;;;5025214;28;20122;-64
2021/11/18 11:21:31;;;;;;;3.97;3.58;;;25.70;32.90;;;;;;5022831;28;20662;-64
2021/11/18 11:24:38;;;;;;;6.63;3.13;;;25.70;33.10;;;;;;5030591;28;20040;-64
2021/11/18 11:27:45;;;;;;;3.55;2.72;;;25.60;33.20;;;;;;5029694;28;20056;-65
2021/11/18 11:30:36;;;;;;;4.35;2.83;;;25.70;33.20;;;;;;5022317;28;20052;-66
2021/11/18 11:33:30;;;;;;;3.20;2.90;;;25.70;33.30;;;;;;5024558;28;20498;-66
2021/11/18 11:36:02;;;;;;;3.38;3.08;;;25.70;33.40;;;;;;5028277;28;20067;-62
2021/11/18 11:38:54;;;;;;;5.70;2.90;;;25.70;33.50;;;;;;5027120;28;20473;-64
2021/11/18 11:42:00;;;;;;;3.85;3.20;;;25.70;33.40;;;;;;5025899;28;20063;-63
2021/11/18 11:44:57;;;;;;;3.25;2.95;;;25.70;33.40;;;;;;5027336;28;20049;-62
2021/11/18 11:48:02;;;;;;;2.70;2.50;;;25.70;33.40;;;;;;5026346;28;20713;-62
2021/11/18 11:51:09;;;;;;;4.78;2.97;;;25.70;33.50;;;;;;5026534;28;20053;-64
2021/11/18 11:54:16;;;;;;;3.78;2.42;;;25.70;33.50;;;;;;5020237;28;20784;-64
2021/11/18 11:56:51;;;;;;;2.80;2.60;;;25.70;33.40;;;;;;5024427;28;20064;-64
2021/11/18 11:59:26;;;;;;;3.42;2.80;;;25.70;33.50;;;;;;5020095;28;20114;-63
2021/11/18 12:02:07;;;;;;;3.00;2.67;;;25.70;33.70;;;;;;5020548;28;20158;-62
2021/11/18 12:05:02;;;;;;;4.55;2.67;;;25.70;33.80;;;;;;5023276;28;20110;-65
2021/11/18 12:07:44;;;;;;;6.00;2.70;;;25.70;33.70;;;;;;5024789;28;20048;-63
2021/11/18 12:10:28;;;;;;;4.15;2.70;;;25.70;33.80;;;;;;5024284;28;20126;-62
2021/11/18 12:13:22;;;;;;;3.25;2.40;;;25.70;33.90;;;;;;5018145;28;20108;-63
2021/11/18 12:15:54;;;;;;;3.08;2.78;;;25.70;34.00;;;;;;5023580;28;20139;-62
2021/11/18 12:18:36;;;;;;;3.85;3.03;;;25.70;33.80;;;;;;5029638;28;20052;-64
2021/11/18 12:21:04;;;;;;;5.18;3.42;;;25.70;33.50;;;;;;5019330;28;20505;-64
2021/11/18 12:24:07;;;;;;;2.80;2.55;;;25.70;33.20;;;;;;5020954;28;20063;-63
2021/11/18 12:26:57;;;;;;;3.22;2.92;;;25.70;33.30;;;;;;5024635;28;20048;-63
2021/11/18 12:29:48;;;;;;;9.18;3.10;;;25.70;33.40;;;;;;5026845;28;20147;-61
2021/11/18 12:32:31;;;;;;;2.95;2.58;;;25.70;33.60;;;;;;5021625;28;20057;-63
2021/11/18 12:35:23;;;;;;;2.47;2.28;;;25.70;33.50;;;;;;5027583;28;20132;-65
2021/11/18 12:38:19;;;;;;;2.67;2.20;;;25.60;33.50;;;;;;5023284;28;20057;-65
2021/11/18 12:41:26;;;;;;;2.35;2.15;;;25.60;33.40;;;;;;5024796;28;20045;-64
2021/11/18 12:44:21;;;;;;;2.78;2.30;;;25.60;33.50;;;;;;5022486;28;20053;-64
2021/11/18 12:47:08;;;;;;;2.33;2.10;;;25.60;33.50;;;;;;5026932;28;20049;-64
2021/11/18 12:50:09;;;;;;;3.15;2.50;;;25.60;33.30;;;;;;5027839;28;20140;-65
2021/11/18 12:52:42;;;;;;;2.22;2.03;;;25.60;33.30;;;;;;5015747;28;20807;-65
2021/11/18 12:55:38;;;;;;;4.57;1.90;;;25.60;33.40;;;;;;5027615;28;20373;-66
2021/11/18 12:58:45;;;;;;;4.60;1.90;;;25.60;33.30;;;;;;5027888;28;20547;-67
2021/11/18 13:01:37;;;;;;;2.15;1.90;;;25.60;33.20;;;;;;5020651;28;20131;-63
2021/11/18 13:04:05;;;;;;;4.43;2.20;;;25.60;33.20;;;;;;5020951;28;20045;-64
2021/11/18 13:06:53;;;;;;;3.47;1.95;;;25.60;33.20;;;;;;5021080;28;20493;-64
2021/11/18 13:09:20;;;;;;;3.13;2.30;;;25.60;33.30;;;;;;5030453;28;20045;-63
2021/11/18 13:11:57;;;;;;;2.25;1.98;;;25.60;33.30;;;;;;5020504;28;20045;-64
2021/11/18 13:14:33;;;;;;;2.75;1.88;;;25.50;33.10;;;;;;5026977;28;20060;-63
2021/11/18 13:17:10;;;;;;;4.97;2.50;;;25.50;33.10;;;;;;5027330;28;20056;-63
2021/11/18 13:20:05;;;;;;;3.20;1.88;;;25.50;33.20;;;;;;5029802;28;20063;-63